sensor_id;sensor_type;location;lat;lon;timestamp;P1;durP1;ratioP1;P2;durP2;ratioP2
21806;SDS011;11065;50.786;7.840;2022-11-14T00:01:55;10.27;;;7.03;;
21806;SDS011;11065;50.786;7.840;2022-11-14T00:04:44;10.93;;;7.07;;
21806;SDS011;11065;50.786;7.840;2022-11-14T00:07:30;10.47;;;7.07;;
21806;SDS011;11065;50.786;7.840;2022-11-14T00:10:16;9.57;;;6.47;;
21806;SDS011;11065;50.786;7.840;2022-11-14T00:13:02;9.37;;;6.23;;
21806;SDS011;11065;50.786;7.840;2022-11-14T00:15:48;9.13;;;6.40;;
21806;SDS011;11065;50.786;7.840;2022-11-14T00:18:35;9.30;;;6.73;;
21806;SDS011;11065;50.786;7.840;2022-11-14T00:21:20;9.40;;;6.67;;
21806;SDS011;11065;50.786;7.840;2022-11-14T00:24:05;9.43;;;6.87;;
21806;SDS011;11065;50.786;7.840;2022-11-14T00:26:51;9.20;;;6.13;;
21806;SDS011;11065;50.786;7.840;2022-11-14T00:29:36;10.47;;;7.10;;
21806;SDS011;11065;50.786;7.840;2022-11-14T00:32:22;9.63;;;6.73;;
21806;SDS011;11065;50.786;7.840;2022-11-14T00:35:07;9.10;;;6.20;;
21806;SDS011;11065;50.786;7.840;2022-11-14T00:37:53;9.20;;;6.27;;
21806;SDS011;11065;50.786;7.840;2022-11-14T00:40:38;10.47;;;6.80;;
21806;SDS011;11065;50.786;7.840;2022-11-14T00:43:23;10.30;;;7.07;;
21806;SDS011;11065;50.786;7.840;2022-11-14T00:46:09;11.83;;;7.93;;
21806;SDS011;11065;50.786;7.840;2022-11-14T00:48:54;11.90;;;7.50;;
21806;SDS011;11065;50.786;7.840;2022-11-14T00:51:40;10.90;;;7.23;;
21806;SDS011;11065;50.786;7.840;2022-11-14T00:54:25;10.63;;;7.00;;
21806;SDS011;11065;50.786;7.840;2022-11-14T00:57:10;10.00;;;7.33;;
21806;SDS011;11065;50.786;7.840;2022-11-14T00:59:56;9.53;;;6.50;;
21806;SDS011;11065;50.786;7.840;2022-11-14T01:02:41;9.97;;;6.53;;
21806;SDS011;11065;50.786;7.840;2022-11-14T01:05:26;10.70;;;6.77;;
21806;SDS011;11065;50.786;7.840;2022-11-14T01:08:12;9.00;;;6.23;;
21806;SDS011;11065;50.786;7.840;2022-11-14T01:10:58;8.33;;;6.03;;
21806;SDS011;11065;50.786;7.840;2022-11-14T01:13:44;6.47;;;5.47;;
21806;SDS011;11065;50.786;7.840;2022-11-14T01:16:29;8.30;;;5.33;;
21806;SDS011;11065;50.786;7.840;2022-11-14T01:19:15;7.47;;;4.97;;
21806;SDS011;11065;50.786;7.840;2022-11-14T01:22:00;7.43;;;4.63;;
21806;SDS011;11065;50.786;7.840;2022-11-14T01:24:50;7.07;;;4.53;;
21806;SDS011;11065;50.786;7.840;2022-11-14T01:27:35;8.27;;;5.27;;
21806;SDS011;11065;50.786;7.840;2022-11-14T01:30:20;8.90;;;5.40;;
21806;SDS011;11065;50.786;7.840;2022-11-14T01:33:06;7.53;;;5.67;;
21806;SDS011;11065;50.786;7.840;2022-11-14T01:35:51;8.00;;;5.73;;
21806;SDS011;11065;50.786;7.840;2022-11-14T01:38:37;8.67;;;5.70;;
21806;SDS011;11065;50.786;7.840;2022-11-14T01:41:23;7.20;;;5.10;;
21806;SDS011;11065;50.786;7.840;2022-11-14T01:44:11;8.43;;;5.50;;
21806;SDS011;11065;50.786;7.840;2022-11-14T01:47:00;8.70;;;5.53;;
21806;SDS011;11065;50.786;7.840;2022-11-14T01:49:46;9.70;;;6.27;;
21806;SDS011;11065;50.786;7.840;2022-11-14T01:52:36;6.97;;;5.37;;
21806;SDS011;11065;50.786;7.840;2022-11-14T01:55:24;9.43;;;6.47;;
21806;SDS011;11065;50.786;7.840;2022-11-14T01:58:11;10.70;;;6.43;;
21806;SDS011;11065;50.786;7.840;2022-11-14T02:00:57;7.97;;;5.63;;
21806;SDS011;11065;50.786;7.840;2022-11-14T02:03:43;14.13;;;6.23;;
21806;SDS011;11065;50.786;7.840;2022-11-14T02:06:32;9.47;;;6.07;;
21806;SDS011;11065;50.786;7.840;2022-11-14T02:09:17;9.53;;;6.00;;
21806;SDS011;11065;50.786;7.840;2022-11-14T02:12:05;8.03;;;5.73;;
21806;SDS011;11065;50.786;7.840;2022-11-14T02:14:53;8.83;;;5.50;;
21806;SDS011;11065;50.786;7.840;2022-11-14T02:17:41;7.73;;;5.10;;
21806;SDS011;11065;50.786;7.840;2022-11-14T02:20:28;9.53;;;6.33;;
21806;SDS011;11065;50.786;7.840;2022-11-14T02:23:24;7.50;;;5.30;;
21806;SDS011;11065;50.786;7.840;2022-11-14T02:26:17;7.23;;;5.10;;
21806;SDS011;11065;50.786;7.840;2022-11-14T02:29:04;6.07;;;4.57;;
21806;SDS011;11065;50.786;7.840;2022-11-14T02:31:51;7.03;;;5.00;;
21806;SDS011;11065;50.786;7.840;2022-11-14T02:34:36;7.10;;;4.70;;
21806;SDS011;11065;50.786;7.840;2022-11-14T02:37:22;7.20;;;5.20;;
21806;SDS011;11065;50.786;7.840;2022-11-14T02:40:08;7.90;;;5.53;;
21806;SDS011;11065;50.786;7.840;2022-11-14T02:42:54;8.30;;;5.70;;
21806;SDS011;11065;50.786;7.840;2022-11-14T02:45:39;8.60;;;5.23;;
21806;SDS011;11065;50.786;7.840;2022-11-14T02:48:25;6.67;;;4.87;;
21806;SDS011;11065;50.786;7.840;2022-11-14T02:51:10;8.17;;;5.00;;
21806;SDS011;11065;50.786;7.840;2022-11-14T02:53:56;7.73;;;4.57;;
21806;SDS011;11065;50.786;7.840;2022-11-14T02:56:41;7.40;;;4.63;;
21806;SDS011;11065;50.786;7.840;2022-11-14T02:59:26;7.23;;;4.70;;
21806;SDS011;11065;50.786;7.840;2022-11-14T03:02:12;6.47;;;4.27;;
21806;SDS011;11065;50.786;7.840;2022-11-14T03:04:57;5.43;;;3.60;;
21806;SDS011;11065;50.786;7.840;2022-11-14T03:07:43;6.53;;;3.70;;
21806;SDS011;11065;50.786;7.840;2022-11-14T03:10:28;5.87;;;4.20;;
21806;SDS011;11065;50.786;7.840;2022-11-14T03:13:14;5.20;;;3.70;;
21806;SDS011;11065;50.786;7.840;2022-11-14T03:16:03;5.50;;;3.90;;
21806;SDS011;11065;50.786;7.840;2022-11-14T03:18:50;6.27;;;3.57;;
21806;SDS011;11065;50.786;7.840;2022-11-14T03:21:36;6.17;;;3.97;;
21806;SDS011;11065;50.786;7.840;2022-11-14T03:24:22;6.07;;;4.13;;
21806;SDS011;11065;50.786;7.840;2022-11-14T03:27:07;6.10;;;4.20;;
21806;SDS011;11065;50.786;7.840;2022-11-14T03:29:52;7.17;;;4.10;;
21806;SDS011;11065;50.786;7.840;2022-11-14T03:32:38;5.17;;;3.47;;
21806;SDS011;11065;50.786;7.840;2022-11-14T03:35:23;4.57;;;2.97;;
21806;SDS011;11065;50.786;7.840;2022-11-14T03:38:08;4.53;;;2.60;;
21806;SDS011;11065;50.786;7.840;2022-11-14T03:40:55;4.63;;;2.80;;
21806;SDS011;11065;50.786;7.840;2022-11-14T03:43:42;4.03;;;2.37;;
21806;SDS011;11065;50.786;7.840;2022-11-14T03:46:28;4.47;;;2.27;;
21806;SDS011;11065;50.786;7.840;2022-11-14T03:49:13;4.43;;;2.40;;
21806;SDS011;11065;50.786;7.840;2022-11-14T03:51:58;4.63;;;2.87;;
21806;SDS011;11065;50.786;7.840;2022-11-14T03:54:44;4.67;;;3.17;;
21806;SDS011;11065;50.786;7.840;2022-11-14T03:57:29;5.10;;;3.07;;
21806;SDS011;11065;50.786;7.840;2022-11-14T04:00:15;6.40;;;3.30;;
21806;SDS011;11065;50.786;7.840;2022-11-14T04:03:01;5.63;;;3.53;;
21806;SDS011;11065;50.786;7.840;2022-11-14T04:05:47;4.50;;;3.27;;
21806;SDS011;11065;50.786;7.840;2022-11-14T04:08:33;6.97;;;3.40;;
21806;SDS011;11065;50.786;7.840;2022-11-14T04:11:18;4.47;;;2.93;;
21806;SDS011;11065;50.786;7.840;2022-11-14T04:14:04;5.13;;;3.20;;
21806;SDS011;11065;50.786;7.840;2022-11-14T04:16:49;4.47;;;2.57;;
21806;SDS011;11065;50.786;7.840;2022-11-14T04:19:35;6.03;;;3.03;;
21806;SDS011;11065;50.786;7.840;2022-11-14T04:22:20;5.17;;;2.53;;
21806;SDS011;11065;50.786;7.840;2022-11-14T04:25:06;5.37;;;3.00;;
21806;SDS011;11065;50.786;7.840;2022-11-14T04:27:52;6.23;;;3.57;;
21806;SDS011;11065;50.786;7.840;2022-11-14T04:30:38;6.87;;;4.70;;
21806;SDS011;11065;50.786;7.840;2022-11-14T04:33:23;6.80;;;3.90;;
21806;SDS011;11065;50.786;7.840;2022-11-14T04:36:09;6.37;;;3.80;;
21806;SDS011;11065;50.786;7.840;2022-11-14T04:38:55;5.37;;;3.60;;
21806;SDS011;11065;50.786;7.840;2022-11-14T04:41:40;5.23;;;3.27;;
21806;SDS011;11065;50.786;7.840;2022-11-14T04:44:25;4.00;;;2.73;;
21806;SDS011;11065;50.786;7.840;2022-11-14T04:47:11;4.57;;;3.00;;
21806;SDS011;11065;50.786;7.840;2022-11-14T04:49:56;4.90;;;2.60;;
21806;SDS011;11065;50.786;7.840;2022-11-14T04:52:42;7.03;;;2.97;;
21806;SDS011;11065;50.786;7.840;2022-11-14T04:55:27;4.40;;;2.73;;
21806;SDS011;11065;50.786;7.840;2022-11-14T04:58:12;4.67;;;2.70;;
21806;SDS011;11065;50.786;7.840;2022-11-14T05:00:58;4.13;;;2.77;;
21806;SDS011;11065;50.786;7.840;2022-11-14T05:03:43;4.73;;;2.90;;
21806;SDS011;11065;50.786;7.840;2022-11-14T05:06:28;3.57;;;2.27;;
21806;SDS011;11065;50.786;7.840;2022-11-14T05:09:14;5.47;;;2.73;;
21806;SDS011;11065;50.786;7.840;2022-11-14T05:11:59;5.27;;;3.20;;
21806;SDS011;11065;50.786;7.840;2022-11-14T05:14:45;6.00;;;4.03;;
21806;SDS011;11065;50.786;7.840;2022-11-14T05:17:30;14.50;;;7.43;;
21806;SDS011;11065;50.786;7.840;2022-11-14T05:20:16;12.63;;;7.60;;
21806;SDS011;11065;50.786;7.840;2022-11-14T05:23:03;12.23;;;6.40;;
21806;SDS011;11065;50.786;7.840;2022-11-14T05:26:03;9.17;;;5.03;;
21806;SDS011;11065;50.786;7.840;2022-11-14T05:28:50;7.20;;;4.03;;
21806;SDS011;11065;50.786;7.840;2022-11-14T05:31:36;6.47;;;4.37;;
21806;SDS011;11065;50.786;7.840;2022-11-14T05:34:21;9.00;;;5.50;;
21806;SDS011;11065;50.786;7.840;2022-11-14T05:37:07;8.83;;;6.10;;
21806;SDS011;11065;50.786;7.840;2022-11-14T05:39:52;10.07;;;6.53;;
21806;SDS011;11065;50.786;7.840;2022-11-14T05:42:37;8.77;;;5.90;;
21806;SDS011;11065;50.786;7.840;2022-11-14T05:45:23;8.57;;;6.10;;
21806;SDS011;11065;50.786;7.840;2022-11-14T05:48:08;7.93;;;5.30;;
21806;SDS011;11065;50.786;7.840;2022-11-14T05:50:55;7.63;;;5.07;;
21806;SDS011;11065;50.786;7.840;2022-11-14T05:53:41;6.57;;;4.27;;
21806;SDS011;11065;50.786;7.840;2022-11-14T05:56:27;7.03;;;4.13;;
21806;SDS011;11065;50.786;7.840;2022-11-14T05:59:12;6.43;;;3.73;;
21806;SDS011;11065;50.786;7.840;2022-11-14T06:01:58;7.17;;;3.80;;
21806;SDS011;11065;50.786;7.840;2022-11-14T06:04:43;5.73;;;4.27;;
21806;SDS011;11065;50.786;7.840;2022-11-14T06:07:28;10.30;;;5.40;;
21806;SDS011;11065;50.786;7.840;2022-11-14T06:10:14;8.93;;;6.10;;
21806;SDS011;11065;50.786;7.840;2022-11-14T06:13:00;10.77;;;6.67;;
21806;SDS011;11065;50.786;7.840;2022-11-14T06:15:45;11.77;;;8.03;;
21806;SDS011;11065;50.786;7.840;2022-11-14T06:18:31;10.60;;;7.07;;
21806;SDS011;11065;50.786;7.840;2022-11-14T06:21:18;9.30;;;6.23;;
21806;SDS011;11065;50.786;7.840;2022-11-14T06:24:05;9.27;;;6.07;;
21806;SDS011;11065;50.786;7.840;2022-11-14T06:26:50;10.20;;;6.47;;
21806;SDS011;11065;50.786;7.840;2022-11-14T06:29:36;8.23;;;5.83;;
21806;SDS011;11065;50.786;7.840;2022-11-14T06:32:21;8.53;;;5.67;;
21806;SDS011;11065;50.786;7.840;2022-11-14T06:35:07;8.63;;;4.37;;
21806;SDS011;11065;50.786;7.840;2022-11-14T06:37:52;7.40;;;4.57;;
21806;SDS011;11065;50.786;7.840;2022-11-14T06:40:38;5.97;;;4.13;;
21806;SDS011;11065;50.786;7.840;2022-11-14T06:43:23;7.20;;;4.93;;
21806;SDS011;11065;50.786;7.840;2022-11-14T06:46:09;7.47;;;5.47;;
21806;SDS011;11065;50.786;7.840;2022-11-14T06:48:56;8.67;;;6.00;;
21806;SDS011;11065;50.786;7.840;2022-11-14T06:51:41;7.90;;;5.47;;
21806;SDS011;11065;50.786;7.840;2022-11-14T06:54:27;8.37;;;6.50;;
21806;SDS011;11065;50.786;7.840;2022-11-14T06:57:12;9.17;;;6.47;;
21806;SDS011;11065;50.786;7.840;2022-11-14T06:59:58;7.40;;;5.67;;
21806;SDS011;11065;50.786;7.840;2022-11-14T07:02:44;7.97;;;5.77;;
21806;SDS011;11065;50.786;7.840;2022-11-14T07:05:30;7.63;;;5.60;;
21806;SDS011;11065;50.786;7.840;2022-11-14T07:08:15;8.10;;;6.13;;
21806;SDS011;11065;50.786;7.840;2022-11-14T07:11:08;10.13;;;6.70;;
21806;SDS011;11065;50.786;7.840;2022-11-14T07:13:56;8.77;;;5.70;;
21806;SDS011;11065;50.786;7.840;2022-11-14T07:16:43;9.33;;;6.50;;
21806;SDS011;11065;50.786;7.840;2022-11-14T07:19:29;7.83;;;6.53;;
21806;SDS011;11065;50.786;7.840;2022-11-14T07:22:14;9.63;;;6.30;;
21806;SDS011;11065;50.786;7.840;2022-11-14T07:24:59;8.93;;;5.80;;
21806;SDS011;11065;50.786;7.840;2022-11-14T07:27:45;9.70;;;6.77;;
21806;SDS011;11065;50.786;7.840;2022-11-14T07:30:31;9.10;;;5.83;;
21806;SDS011;11065;50.786;7.840;2022-11-14T07:33:17;7.27;;;4.93;;
21806;SDS011;11065;50.786;7.840;2022-11-14T07:36:02;8.13;;;5.83;;
21806;SDS011;11065;50.786;7.840;2022-11-14T07:38:48;7.33;;;5.50;;
21806;SDS011;11065;50.786;7.840;2022-11-14T07:41:34;8.17;;;5.80;;
21806;SDS011;11065;50.786;7.840;2022-11-14T07:44:19;9.60;;;6.13;;
21806;SDS011;11065;50.786;7.840;2022-11-14T07:47:05;8.00;;;5.80;;
21806;SDS011;11065;50.786;7.840;2022-11-14T07:49:50;9.40;;;5.50;;
21806;SDS011;11065;50.786;7.840;2022-11-14T07:52:36;7.70;;;5.37;;
21806;SDS011;11065;50.786;7.840;2022-11-14T07:55:21;7.90;;;5.23;;
21806;SDS011;11065;50.786;7.840;2022-11-14T07:58:07;7.57;;;5.43;;
21806;SDS011;11065;50.786;7.840;2022-11-14T08:00:53;8.53;;;5.13;;
21806;SDS011;11065;50.786;7.840;2022-11-14T08:03:38;7.27;;;4.90;;
21806;SDS011;11065;50.786;7.840;2022-11-14T08:06:30;10.07;;;6.67;;
21806;SDS011;11065;50.786;7.840;2022-11-14T08:09:15;12.27;;;8.17;;
21806;SDS011;11065;50.786;7.840;2022-11-14T08:12:00;13.73;;;9.00;;
21806;SDS011;11065;50.786;7.840;2022-11-14T08:14:46;14.43;;;9.50;;
21806;SDS011;11065;50.786;7.840;2022-11-14T08:17:31;15.33;;;9.27;;
21806;SDS011;11065;50.786;7.840;2022-11-14T08:20:17;13.50;;;9.60;;
21806;SDS011;11065;50.786;7.840;2022-11-14T08:23:03;16.27;;;10.70;;
21806;SDS011;11065;50.786;7.840;2022-11-14T08:25:50;16.07;;;9.93;;
21806;SDS011;11065;50.786;7.840;2022-11-14T08:28:36;15.60;;;9.70;;
21806;SDS011;11065;50.786;7.840;2022-11-14T08:31:21;15.33;;;9.57;;
21806;SDS011;11065;50.786;7.840;2022-11-14T08:34:07;14.13;;;10.30;;
21806;SDS011;11065;50.786;7.840;2022-11-14T08:36:53;14.40;;;9.60;;
21806;SDS011;11065;50.786;7.840;2022-11-14T08:39:40;13.73;;;8.47;;
21806;SDS011;11065;50.786;7.840;2022-11-14T08:42:25;15.23;;;9.67;;
21806;SDS011;11065;50.786;7.840;2022-11-14T08:45:11;16.67;;;10.30;;
21806;SDS011;11065;50.786;7.840;2022-11-14T08:47:57;15.77;;;10.13;;
21806;SDS011;11065;50.786;7.840;2022-11-14T08:50:42;15.27;;;9.93;;
21806;SDS011;11065;50.786;7.840;2022-11-14T08:53:27;15.43;;;10.37;;
21806;SDS011;11065;50.786;7.840;2022-11-14T08:56:13;15.63;;;9.73;;
21806;SDS011;11065;50.786;7.840;2022-11-14T08:59:01;13.50;;;9.27;;
21806;SDS011;11065;50.786;7.840;2022-11-14T09:01:47;15.47;;;9.70;;
21806;SDS011;11065;50.786;7.840;2022-11-14T09:04:32;13.10;;;8.97;;
21806;SDS011;11065;50.786;7.840;2022-11-14T09:07:18;12.90;;;9.07;;
21806;SDS011;11065;50.786;7.840;2022-11-14T09:10:03;12.90;;;8.67;;
21806;SDS011;11065;50.786;7.840;2022-11-14T09:12:56;12.90;;;9.00;;
21806;SDS011;11065;50.786;7.840;2022-11-14T09:15:42;12.60;;;8.90;;
21806;SDS011;11065;50.786;7.840;2022-11-14T09:18:28;12.60;;;8.90;;
21806;SDS011;11065;50.786;7.840;2022-11-14T09:21:15;13.13;;;10.07;;
21806;SDS011;11065;50.786;7.840;2022-11-14T09:24:00;14.60;;;9.93;;
21806;SDS011;11065;50.786;7.840;2022-11-14T09:26:46;13.77;;;8.93;;
21806;SDS011;11065;50.786;7.840;2022-11-14T09:29:40;12.00;;;8.30;;
21806;SDS011;11065;50.786;7.840;2022-11-14T09:32:25;11.17;;;8.63;;
21806;SDS011;11065;50.786;7.840;2022-11-14T09:35:11;13.27;;;9.47;;
21806;SDS011;11065;50.786;7.840;2022-11-14T09:38:02;12.83;;;8.87;;
21806;SDS011;11065;50.786;7.840;2022-11-14T09:40:51;13.30;;;9.77;;
21806;SDS011;11065;50.786;7.840;2022-11-14T09:47:06;11.50;;;8.27;;
21806;SDS011;11065;50.786;7.840;2022-11-14T09:50:10;12.43;;;8.83;;
21806;SDS011;11065;50.786;7.840;2022-11-14T09:53:04;12.33;;;8.87;;
21806;SDS011;11065;50.786;7.840;2022-11-14T09:55:58;12.67;;;9.23;;
21806;SDS011;11065;50.786;7.840;2022-11-14T09:58:44;13.83;;;9.50;;
21806;SDS011;11065;50.786;7.840;2022-11-14T10:01:40;11.73;;;8.43;;
21806;SDS011;11065;50.786;7.840;2022-11-14T10:04:47;11.47;;;8.23;;
21806;SDS011;11065;50.786;7.840;2022-11-14T10:17:13;11.47;;;8.33;;
21806;SDS011;11065;50.786;7.840;2022-11-14T10:23:04;12.13;;;8.80;;
21806;SDS011;11065;50.786;7.840;2022-11-14T10:26:08;11.40;;;8.43;;
21806;SDS011;11065;50.786;7.840;2022-11-14T10:35:23;11.63;;;8.37;;
21806;SDS011;11065;50.786;7.840;2022-11-14T10:38:22;11.90;;;8.33;;
21806;SDS011;11065;50.786;7.840;2022-11-14T10:41:16;12.23;;;8.50;;
21806;SDS011;11065;50.786;7.840;2022-11-14T10:44:24;12.10;;;8.17;;
21806;SDS011;11065;50.786;7.840;2022-11-14T10:47:13;12.50;;;8.43;;
21806;SDS011;11065;50.786;7.840;2022-11-14T10:50:05;12.27;;;8.50;;
21806;SDS011;11065;50.786;7.840;2022-11-14T10:53:13;11.83;;;8.27;;
21806;SDS011;11065;50.786;7.840;2022-11-14T10:56:09;11.87;;;8.17;;
21806;SDS011;11065;50.786;7.840;2022-11-14T10:58:56;12.33;;;8.07;;
21806;SDS011;11065;50.786;7.840;2022-11-14T11:01:43;11.93;;;8.37;;
21806;SDS011;11065;50.786;7.840;2022-11-14T11:04:38;13.23;;;8.93;;
21806;SDS011;11065;50.786;7.840;2022-11-14T11:07:28;14.00;;;9.50;;
21806;SDS011;11065;50.786;7.840;2022-11-14T11:10:32;11.70;;;7.97;;
21806;SDS011;11065;50.786;7.840;2022-11-14T11:13:49;13.20;;;8.93;;
21806;SDS011;11065;50.786;7.840;2022-11-14T11:16:37;10.50;;;7.47;;
21806;SDS011;11065;50.786;7.840;2022-11-14T11:19:24;10.33;;;7.67;;
21806;SDS011;11065;50.786;7.840;2022-11-14T11:22:56;12.10;;;8.60;;
21806;SDS011;11065;50.786;7.840;2022-11-14T11:25:31;13.07;;;8.70;;
21806;SDS011;11065;50.786;7.840;2022-11-14T11:28:19;10.97;;;7.77;;
21806;SDS011;11065;50.786;7.840;2022-11-14T11:31:07;12.07;;;8.77;;
21806;SDS011;11065;50.786;7.840;2022-11-14T11:33:54;11.27;;;8.03;;
21806;SDS011;11065;50.786;7.840;2022-11-14T11:36:47;13.83;;;9.03;;
21806;SDS011;11065;50.786;7.840;2022-11-14T11:39:40;13.30;;;9.67;;
21806;SDS011;11065;50.786;7.840;2022-11-14T11:42:36;12.17;;;8.57;;
21806;SDS011;11065;50.786;7.840;2022-11-14T11:45:46;14.03;;;9.33;;
21806;SDS011;11065;50.786;7.840;2022-11-14T11:48:36;11.60;;;8.70;;
21806;SDS011;11065;50.786;7.840;2022-11-14T11:51:23;12.77;;;9.10;;
21806;SDS011;11065;50.786;7.840;2022-11-14T11:54:21;13.17;;;8.87;;
21806;SDS011;11065;50.786;7.840;2022-11-14T11:57:14;12.20;;;8.20;;
21806;SDS011;11065;50.786;7.840;2022-11-14T12:00:06;14.40;;;9.03;;
21806;SDS011;11065;50.786;7.840;2022-11-14T12:02:59;14.63;;;9.30;;
21806;SDS011;11065;50.786;7.840;2022-11-14T12:06:10;12.27;;;8.97;;
21806;SDS011;11065;50.786;7.840;2022-11-14T12:09:11;13.50;;;9.60;;
21806;SDS011;11065;50.786;7.840;2022-11-14T12:12:02;12.43;;;8.53;;
21806;SDS011;11065;50.786;7.840;2022-11-14T12:15:03;14.60;;;9.07;;
21806;SDS011;11065;50.786;7.840;2022-11-14T12:21:09;14.13;;;9.53;;
21806;SDS011;11065;50.786;7.840;2022-11-14T12:30:11;13.93;;;9.13;;
21806;SDS011;11065;50.786;7.840;2022-11-14T12:33:03;13.63;;;9.77;;
21806;SDS011;11065;50.786;7.840;2022-11-14T12:35:55;12.13;;;8.73;;
21806;SDS011;11065;50.786;7.840;2022-11-14T12:38:48;14.17;;;9.30;;
21806;SDS011;11065;50.786;7.840;2022-11-14T12:41:36;14.37;;;9.47;;
21806;SDS011;11065;50.786;7.840;2022-11-14T12:50:28;13.03;;;8.47;;
21806;SDS011;11065;50.786;7.840;2022-11-14T12:59:37;11.50;;;8.17;;
21806;SDS011;11065;50.786;7.840;2022-11-14T13:06:08;11.90;;;7.80;;
21806;SDS011;11065;50.786;7.840;2022-11-14T13:12:37;9.97;;;7.07;;
21806;SDS011;11065;50.786;7.840;2022-11-14T13:15:46;10.80;;;7.27;;
21806;SDS011;11065;50.786;7.840;2022-11-14T13:27:44;10.77;;;7.63;;
21806;SDS011;11065;50.786;7.840;2022-11-14T13:37:19;8.97;;;6.53;;
21806;SDS011;11065;50.786;7.840;2022-11-14T13:50:25;8.07;;;6.30;;
21806;SDS011;11065;50.786;7.840;2022-11-14T13:53:16;9.57;;;6.57;;
21806;SDS011;11065;50.786;7.840;2022-11-14T13:56:18;9.97;;;6.60;;
21806;SDS011;11065;50.786;7.840;2022-11-14T13:59:43;9.47;;;5.90;;
21806;SDS011;11065;50.786;7.840;2022-11-14T14:05:55;9.30;;;6.60;;
21806;SDS011;11065;50.786;7.840;2022-11-14T14:24:29;9.50;;;7.20;;
21806;SDS011;11065;50.786;7.840;2022-11-14T14:27:27;7.90;;;5.97;;
21806;SDS011;11065;50.786;7.840;2022-11-14T14:30:20;8.93;;;6.23;;
21806;SDS011;11065;50.786;7.840;2022-11-14T14:35:52;9.97;;;6.90;;
21806;SDS011;11065;50.786;7.840;2022-11-14T14:38:37;10.50;;;7.00;;
21806;SDS011;11065;50.786;7.840;2022-11-14T14:41:23;10.43;;;7.07;;
21806;SDS011;11065;50.786;7.840;2022-11-14T14:44:16;11.37;;;6.57;;
21806;SDS011;11065;50.786;7.840;2022-11-14T14:50:16;8.90;;;6.57;;
21806;SDS011;11065;50.786;7.840;2022-11-14T14:53:06;9.47;;;5.90;;
21806;SDS011;11065;50.786;7.840;2022-11-14T14:56:04;7.87;;;5.90;;
21806;SDS011;11065;50.786;7.840;2022-11-14T14:59:17;10.37;;;6.47;;
21806;SDS011;11065;50.786;7.840;2022-11-14T15:02:08;11.80;;;6.40;;
21806;SDS011;11065;50.786;7.840;2022-11-14T15:05:03;8.57;;;6.13;;
21806;SDS011;11065;50.786;7.840;2022-11-14T15:07:50;8.70;;;6.10;;
21806;SDS011;11065;50.786;7.840;2022-11-14T15:10:39;9.53;;;6.40;;
21806;SDS011;11065;50.786;7.840;2022-11-14T15:13:25;8.40;;;6.50;;
21806;SDS011;11065;50.786;7.840;2022-11-14T15:16:12;8.97;;;6.00;;
21806;SDS011;11065;50.786;7.840;2022-11-14T15:18:58;9.40;;;5.90;;
21806;SDS011;11065;50.786;7.840;2022-11-14T15:21:45;8.87;;;6.67;;
21806;SDS011;11065;50.786;7.840;2022-11-14T15:27:55;7.67;;;5.80;;
21806;SDS011;11065;50.786;7.840;2022-11-14T15:30:57;9.13;;;6.23;;
21806;SDS011;11065;50.786;7.840;2022-11-14T15:33:45;8.83;;;6.10;;
21806;SDS011;11065;50.786;7.840;2022-11-14T15:39:50;8.23;;;5.90;;
21806;SDS011;11065;50.786;7.840;2022-11-14T15:42:36;8.77;;;6.20;;
21806;SDS011;11065;50.786;7.840;2022-11-14T15:45:22;10.00;;;6.47;;
21806;SDS011;11065;50.786;7.840;2022-11-14T15:48:13;8.90;;;5.97;;
21806;SDS011;11065;50.786;7.840;2022-11-14T15:51:01;8.07;;;6.23;;
21806;SDS011;11065;50.786;7.840;2022-11-14T15:53:47;10.97;;;6.47;;
21806;SDS011;11065;50.786;7.840;2022-11-14T15:56:34;7.77;;;5.50;;
21806;SDS011;11065;50.786;7.840;2022-11-14T15:59:19;8.90;;;6.63;;
21806;SDS011;11065;50.786;7.840;2022-11-14T16:02:13;10.47;;;7.10;;
21806;SDS011;11065;50.786;7.840;2022-11-14T16:05:02;10.73;;;6.97;;
21806;SDS011;11065;50.786;7.840;2022-11-14T16:07:47;10.57;;;6.90;;
21806;SDS011;11065;50.786;7.840;2022-11-14T16:10:33;15.73;;;11.40;;
21806;SDS011;11065;50.786;7.840;2022-11-14T16:13:18;15.60;;;9.87;;
21806;SDS011;11065;50.786;7.840;2022-11-14T16:16:04;13.17;;;8.73;;
21806;SDS011;11065;50.786;7.840;2022-11-14T16:18:50;11.73;;;8.33;;
21806;SDS011;11065;50.786;7.840;2022-11-14T16:21:36;10.17;;;7.43;;
21806;SDS011;11065;50.786;7.840;2022-11-14T16:24:21;11.37;;;7.13;;
21806;SDS011;11065;50.786;7.840;2022-11-14T16:27:07;9.07;;;5.90;;
21806;SDS011;11065;50.786;7.840;2022-11-14T16:29:53;10.20;;;6.67;;
21806;SDS011;11065;50.786;7.840;2022-11-14T16:32:40;8.03;;;5.73;;
21806;SDS011;11065;50.786;7.840;2022-11-14T16:35:29;7.27;;;5.40;;
21806;SDS011;11065;50.786;7.840;2022-11-14T16:38:15;9.60;;;5.93;;
21806;SDS011;11065;50.786;7.840;2022-11-14T16:41:00;8.33;;;5.57;;
21806;SDS011;11065;50.786;7.840;2022-11-14T16:43:52;6.73;;;5.13;;
21806;SDS011;11065;50.786;7.840;2022-11-14T16:46:38;6.73;;;4.73;;
21806;SDS011;11065;50.786;7.840;2022-11-14T16:49:24;6.63;;;4.73;;
21806;SDS011;11065;50.786;7.840;2022-11-14T16:52:09;7.37;;;4.80;;
21806;SDS011;11065;50.786;7.840;2022-11-14T16:54:55;5.80;;;4.47;;
21806;SDS011;11065;50.786;7.840;2022-11-14T16:57:40;6.97;;;4.83;;
21806;SDS011;11065;50.786;7.840;2022-11-14T17:00:25;7.80;;;5.10;;
21806;SDS011;11065;50.786;7.840;2022-11-14T17:03:11;6.00;;;4.30;;
21806;SDS011;11065;50.786;7.840;2022-11-14T17:05:56;6.73;;;4.73;;
21806;SDS011;11065;50.786;7.840;2022-11-14T17:08:42;6.13;;;4.73;;
21806;SDS011;11065;50.786;7.840;2022-11-14T17:11:27;6.10;;;4.47;;
21806;SDS011;11065;50.786;7.840;2022-11-14T17:14:13;7.43;;;4.87;;
21806;SDS011;11065;50.786;7.840;2022-11-14T17:16:58;5.97;;;4.80;;
21806;SDS011;11065;50.786;7.840;2022-11-14T17:19:47;6.50;;;5.10;;
21806;SDS011;11065;50.786;7.840;2022-11-14T17:22:33;7.57;;;5.43;;
21806;SDS011;11065;50.786;7.840;2022-11-14T17:25:18;8.50;;;5.13;;
21806;SDS011;11065;50.786;7.840;2022-11-14T17:28:03;7.70;;;5.07;;
21806;SDS011;11065;50.786;7.840;2022-11-14T17:30:49;5.97;;;4.57;;
21806;SDS011;11065;50.786;7.840;2022-11-14T17:33:35;8.83;;;5.17;;
21806;SDS011;11065;50.786;7.840;2022-11-14T17:36:21;7.63;;;5.33;;
21806;SDS011;11065;50.786;7.840;2022-11-14T17:39:07;7.27;;;5.47;;
21806;SDS011;11065;50.786;7.840;2022-11-14T17:41:53;7.17;;;5.40;;
21806;SDS011;11065;50.786;7.840;2022-11-14T17:44:38;6.43;;;5.13;;
21806;SDS011;11065;50.786;7.840;2022-11-14T17:47:23;7.50;;;5.83;;
21806;SDS011;11065;50.786;7.840;2022-11-14T17:50:09;8.53;;;6.00;;
21806;SDS011;11065;50.786;7.840;2022-11-14T17:52:54;6.67;;;5.13;;
21806;SDS011;11065;50.786;7.840;2022-11-14T17:55:40;6.57;;;4.97;;
21806;SDS011;11065;50.786;7.840;2022-11-14T17:58:26;6.57;;;5.23;;
21806;SDS011;11065;50.786;7.840;2022-11-14T18:01:14;7.30;;;5.10;;
21806;SDS011;11065;50.786;7.840;2022-11-14T18:04:01;6.80;;;5.03;;
21806;SDS011;11065;50.786;7.840;2022-11-14T18:06:50;7.20;;;5.00;;
21806;SDS011;11065;50.786;7.840;2022-11-14T18:09:36;5.83;;;4.77;;
21806;SDS011;11065;50.786;7.840;2022-11-14T18:12:22;10.07;;;7.27;;
21806;SDS011;11065;50.786;7.840;2022-11-14T18:15:08;7.97;;;6.00;;
21806;SDS011;11065;50.786;7.840;2022-11-14T18:17:53;6.97;;;6.00;;
21806;SDS011;11065;50.786;7.840;2022-11-14T18:20:38;7.60;;;5.87;;
21806;SDS011;11065;50.786;7.840;2022-11-14T18:23:24;7.23;;;5.57;;
21806;SDS011;11065;50.786;7.840;2022-11-14T18:26:10;7.30;;;4.93;;
21806;SDS011;11065;50.786;7.840;2022-11-14T18:28:57;6.77;;;5.00;;
21806;SDS011;11065;50.786;7.840;2022-11-14T18:31:47;6.90;;;5.27;;
21806;SDS011;11065;50.786;7.840;2022-11-14T18:34:32;6.13;;;4.83;;
21806;SDS011;11065;50.786;7.840;2022-11-14T18:37:20;6.23;;;4.67;;